AUA26K LOWW-EDDS
Flight info
| Callsign | AUA26K |
|---|---|
| Flight time | 0h 49m |
| Altitude | 30000 |
| Route | LUGEM DCT KIRDI DCT EBEDA L173 MAH/N0389F240 L173 DODIL T127 TEKSI TEKSI5A |
| Aircraft | MD82/M-SDFGIJ1RWY/S |
Departure
| Time | 2026-04-30 10:28 |
|---|---|
| Airport | Vienna International Airport (LOWW) |
Arrival
| Time | 2026-04-30 11:18 |
|---|---|
| Airport | Stuttgart Airport (EDDS) |
| Time | Latitude | Longitude | Altitude | Speed | Heading |
|---|---|---|---|---|---|
| 2026-04-30 10:18 | 48.11415 | 16.57196 | 604 ft | 0 kts | 206° |
| 2026-04-30 10:25 | 48.11413 | 16.57195 | 604 ft | 1 kts | 206° |
| 2026-04-30 10:25 | 48.11398 | 16.57183 | 604 ft | 3 kts | 206° |
| 2026-04-30 10:25 | 48.11366 | 16.57162 | 604 ft | 6 kts | 197° |
| 2026-04-30 10:26 | 48.11327 | 16.57206 | 603 ft | 9 kts | 123° |
| 2026-04-30 10:26 | 48.11269 | 16.57282 | 602 ft | 13 kts | 175° |
| 2026-04-30 10:26 | 48.11169 | 16.57231 | 601 ft | 17 kts | 209° |
| 2026-04-30 10:26 | 48.11069 | 16.57145 | 603 ft | 10 kts | 211° |
| 2026-04-30 10:27 | 48.11058 | 16.57098 | 603 ft | 4 kts | 291° |
| 2026-04-30 10:27 | 48.11073 | 16.57049 | 603 ft | 9 kts | 296° |
| 2026-04-30 10:27 | 48.11175 | 16.56737 | 601 ft | 63 kts | 296° |
| 2026-04-30 10:27 | 48.11459 | 16.55858 | 585 ft | 126 kts | 297° |
| 2026-04-30 10:28 | 48.11935 | 16.54455 | 757 ft | 167 kts | 300° |
| 2026-04-30 10:28 | 48.12432 | 16.52784 | 1226 ft | 197 kts | 282° |
| 2026-04-30 10:28 | 48.12215 | 16.50662 | 1901 ft | 222 kts | 255° |
| 2026-04-30 10:28 | 48.11789 | 16.48374 | 2708 ft | 238 kts | 258° |
| 2026-04-30 10:29 | 48.11344 | 16.45926 | 3553 ft | 253 kts | 258° |
| 2026-04-30 10:29 | 48.10889 | 16.43396 | 4522 ft | 262 kts | 258° |
| 2026-04-30 10:29 | 48.10417 | 16.40703 | 5383 ft | 275 kts | 258° |
| 2026-04-30 10:29 | 48.09932 | 16.37907 | 6386 ft | 281 kts | 259° |
| 2026-04-30 10:30 | 48.09819 | 16.35059 | 7394 ft | 281 kts | 276° |
| 2026-04-30 10:30 | 48.09881 | 16.32098 | 8301 ft | 288 kts | 275° |
| 2026-04-30 10:30 | 48.09935 | 16.29201 | 9406 ft | 286 kts | 275° |
| 2026-04-30 10:30 | 48.09989 | 16.26165 | 10030 ft | 301 kts | 275° |
| 2026-04-30 10:31 | 48.10041 | 16.23080 | 11128 ft | 297 kts | 275° |
| 2026-04-30 10:31 | 48.10135 | 16.19948 | 11579 ft | 314 kts | 281° |
| 2026-04-30 10:31 | 48.10450 | 16.16627 | 12064 ft | 331 kts | 281° |
| 2026-04-30 10:31 | 48.10768 | 16.13137 | 12593 ft | 345 kts | 281° |
| 2026-04-30 10:32 | 48.11095 | 16.09526 | 13136 ft | 358 kts | 281° |
| 2026-04-30 10:32 | 48.11416 | 16.05947 | 14250 ft | 351 kts | 281° |
| 2026-04-30 10:32 | 48.11748 | 16.02265 | 14647 ft | 367 kts | 282° |
| 2026-04-30 10:32 | 48.12083 | 15.98506 | 15702 ft | 361 kts | 282° |
| 2026-04-30 10:33 | 48.12420 | 15.94753 | 15982 ft | 378 kts | 282° |
| 2026-04-30 10:33 | 48.12759 | 15.90911 | 17053 ft | 370 kts | 282° |
| 2026-04-30 10:33 | 48.13102 | 15.87057 | 17514 ft | 380 kts | 283° |
| 2026-04-30 10:33 | 48.13448 | 15.83122 | 18119 ft | 383 kts | 283° |
| 2026-04-30 10:34 | 48.13798 | 15.79151 | 18675 ft | 390 kts | 283° |
| 2026-04-30 10:34 | 48.14151 | 15.75109 | 19291 ft | 392 kts | 283° |
| 2026-04-30 10:34 | 48.14497 | 15.71136 | 19894 ft | 395 kts | 283° |
| 2026-04-30 10:34 | 48.14853 | 15.67024 | 20395 ft | 399 kts | 283° |
| 2026-04-30 10:35 | 48.15207 | 15.62943 | 20989 ft | 402 kts | 283° |
| 2026-04-30 10:35 | 48.15565 | 15.58768 | 21389 ft | 407 kts | 283° |
| 2026-04-30 10:35 | 48.15920 | 15.54611 | 22050 ft | 407 kts | 283° |
| 2026-04-30 10:35 | 48.16286 | 15.50330 | 22404 ft | 413 kts | 283° |
| 2026-04-30 10:36 | 48.16642 | 15.46127 | 22979 ft | 413 kts | 283° |
| 2026-04-30 10:36 | 48.17006 | 15.41821 | 23218 ft | 421 kts | 283° |
| 2026-04-30 10:36 | 48.17286 | 15.37487 | 23897 ft | 421 kts | 278° |
| 2026-04-30 10:36 | 48.17384 | 15.33115 | 24065 ft | 430 kts | 277° |
| 2026-04-30 10:37 | 48.17488 | 15.28626 | 24567 ft | 431 kts | 277° |
| 2026-04-30 10:37 | 48.17593 | 15.24154 | 24846 ft | 435 kts | 277° |
| 2026-04-30 10:37 | 48.17696 | 15.19654 | 25305 ft | 436 kts | 277° |
| 2026-04-30 10:37 | 48.17802 | 15.15053 | 25577 ft | 441 kts | 277° |
| 2026-04-30 10:38 | 48.17903 | 15.10532 | 25997 ft | 442 kts | 277° |
| 2026-04-30 10:38 | 48.18009 | 15.05858 | 26189 ft | 448 kts | 277° |
| 2026-04-30 10:38 | 48.18108 | 15.01222 | 26642 ft | 447 kts | 277° |
| 2026-04-30 10:38 | 48.18210 | 14.96532 | 26908 ft | 452 kts | 277° |
| 2026-04-30 10:39 | 48.18309 | 14.91803 | 27210 ft | 454 kts | 277° |
| 2026-04-30 10:39 | 48.18405 | 14.87104 | 27462 ft | 457 kts | 278° |
| 2026-04-30 10:39 | 48.18502 | 14.82302 | 27763 ft | 459 kts | 278° |
| 2026-04-30 10:39 | 48.18597 | 14.77558 | 28041 ft | 461 kts | 278° |
| 2026-04-30 10:40 | 48.18689 | 14.72752 | 28269 ft | 464 kts | 278° |
| 2026-04-30 10:40 | 48.18782 | 14.67893 | 28475 ft | 468 kts | 278° |
| 2026-04-30 10:40 | 48.18872 | 14.63058 | 28632 ft | 473 kts | 278° |
| 2026-04-30 10:40 | 48.18959 | 14.58169 | 29125 ft | 468 kts | 278° |
| 2026-04-30 10:41 | 48.19046 | 14.53330 | 29440 ft | 468 kts | 278° |
| 2026-04-30 10:41 | 48.19131 | 14.48417 | 29596 ft | 472 kts | 278° |
| 2026-04-30 10:41 | 48.19212 | 14.43505 | 29890 ft | 472 kts | 278° |
| 2026-04-30 10:41 | 48.19293 | 14.38618 | 30178 ft | 472 kts | 278° |
| 2026-04-30 10:42 | 48.19371 | 14.33740 | 30398 ft | 470 kts | 278° |
| 2026-04-30 10:42 | 48.19448 | 14.28874 | 30418 ft | 476 kts | 277° |
| 2026-04-30 10:42 | 48.19598 | 14.18851 | 30413 ft | 487 kts | 277° |
| 2026-04-30 10:43 | 48.19741 | 14.08613 | 30409 ft | 495 kts | 277° |
| 2026-04-30 10:43 | 48.19878 | 13.98330 | 30401 ft | 500 kts | 277° |
| 2026-04-30 10:44 | 48.20004 | 13.87876 | 30380 ft | 502 kts | 277° |
| 2026-04-30 10:44 | 48.20123 | 13.77504 | 30371 ft | 502 kts | 277° |
| 2026-04-30 10:45 | 48.20232 | 13.67037 | 30368 ft | 502 kts | 277° |
| 2026-04-30 10:45 | 48.20330 | 13.56645 | 30356 ft | 503 kts | 277° |
| 2026-04-30 10:46 | 48.20421 | 13.46216 | 30340 ft | 503 kts | 277° |
| 2026-04-30 10:46 | 48.20502 | 13.35774 | 30347 ft | 502 kts | 277° |
| 2026-04-30 10:47 | 48.20574 | 13.25353 | 30335 ft | 502 kts | 276° |
| 2026-04-30 10:47 | 48.20635 | 13.14866 | 30336 ft | 503 kts | 276° |
| 2026-04-30 10:48 | 48.20687 | 13.04438 | 30344 ft | 502 kts | 276° |
| 2026-04-30 10:48 | 48.20731 | 12.93996 | 30342 ft | 502 kts | 276° |
| 2026-04-30 10:49 | 48.20764 | 12.83584 | 30350 ft | 502 kts | 276° |
| 2026-04-30 10:49 | 48.20188 | 12.73173 | 30346 ft | 506 kts | 270° |
| 2026-04-30 10:50 | 48.19488 | 12.62765 | 30350 ft | 505 kts | 270° |
| 2026-04-30 10:50 | 48.18781 | 12.52286 | 30337 ft | 505 kts | 270° |
| 2026-04-30 10:51 | 48.18071 | 12.41900 | 30339 ft | 505 kts | 270° |
| 2026-04-30 10:51 | 48.17350 | 12.31466 | 30334 ft | 504 kts | 269° |
| 2026-04-30 10:52 | 48.16617 | 12.21021 | 30332 ft | 504 kts | 269° |
| 2026-04-30 10:52 | 48.16063 | 12.10680 | 30290 ft | 494 kts | 280° |
| 2026-04-30 10:53 | 48.16800 | 12.00535 | 30325 ft | 491 kts | 282° |
| 2026-04-30 10:53 | 48.17479 | 11.90357 | 30324 ft | 492 kts | 281° |
| 2026-04-30 10:54 | 48.18203 | 11.80256 | 30296 ft | 486 kts | 288° |
| 2026-04-30 10:54 | 48.19828 | 11.70765 | 30316 ft | 456 kts | 291° |
| 2026-04-30 10:55 | 48.20593 | 11.66210 | 30299 ft | 441 kts | 291° |
| 2026-04-30 10:55 | 48.21333 | 11.61791 | 30320 ft | 447 kts | 291° |
| 2026-04-30 10:55 | 48.22855 | 11.52593 | 30321 ft | 461 kts | 290° |
| 2026-04-30 10:56 | 48.23613 | 11.47976 | 30119 ft | 464 kts | 290° |
| 2026-04-30 10:56 | 48.24378 | 11.43293 | 29850 ft | 458 kts | 290° |
| 2026-04-30 10:56 | 48.25127 | 11.38703 | 29427 ft | 457 kts | 290° |
| 2026-04-30 10:56 | 48.25886 | 11.34101 | 28990 ft | 457 kts | 291° |
| 2026-04-30 10:57 | 48.27216 | 11.29899 | 28519 ft | 440 kts | 312° |
| 2026-04-30 10:57 | 48.29271 | 11.26609 | 28125 ft | 431 kts | 321° |
| 2026-04-30 10:57 | 48.31372 | 11.23392 | 27639 ft | 430 kts | 321° |
| 2026-04-30 10:57 | 48.33442 | 11.20209 | 27168 ft | 426 kts | 320° |
| 2026-04-30 10:58 | 48.35476 | 11.17068 | 26716 ft | 422 kts | 320° |
| 2026-04-30 10:58 | 48.37516 | 11.13909 | 26262 ft | 419 kts | 320° |
| 2026-04-30 10:58 | 48.39543 | 11.10763 | 25807 ft | 417 kts | 320° |
| 2026-04-30 10:58 | 48.41535 | 11.07665 | 25365 ft | 414 kts | 320° |
| 2026-04-30 10:59 | 48.43527 | 11.04566 | 24913 ft | 412 kts | 320° |
| 2026-04-30 10:59 | 48.45495 | 11.01497 | 24482 ft | 410 kts | 320° |
| 2026-04-30 10:59 | 48.47456 | 10.98433 | 24198 ft | 405 kts | 320° |
| 2026-04-30 10:59 | 48.49409 | 10.95380 | 23912 ft | 404 kts | 320° |
| 2026-04-30 11:00 | 48.51236 | 10.92172 | 23665 ft | 408 kts | 308° |
| 2026-04-30 11:00 | 48.52259 | 10.88218 | 23433 ft | 407 kts | 286° |
| 2026-04-30 11:00 | 48.52720 | 10.84101 | 23313 ft | 391 kts | 284° |
| 2026-04-30 11:00 | 48.53075 | 10.80086 | 22877 ft | 385 kts | 282° |
| 2026-04-30 11:01 | 48.53359 | 10.76129 | 22375 ft | 381 kts | 281° |
| 2026-04-30 11:01 | 48.53605 | 10.72157 | 21838 ft | 378 kts | 280° |
| 2026-04-30 11:01 | 48.53825 | 10.68229 | 21335 ft | 374 kts | 279° |
| 2026-04-30 11:01 | 48.54024 | 10.64403 | 20885 ft | 369 kts | 279° |
| 2026-04-30 11:02 | 48.54213 | 10.60594 | 20489 ft | 363 kts | 278° |
| 2026-04-30 11:02 | 48.54395 | 10.56816 | 20107 ft | 356 kts | 278° |
| 2026-04-30 11:02 | 48.54567 | 10.53163 | 19732 ft | 350 kts | 278° |
| 2026-04-30 11:02 | 48.54736 | 10.49511 | 19315 ft | 346 kts | 278° |
| 2026-04-30 11:03 | 48.54900 | 10.45932 | 18954 ft | 348 kts | 278° |
| 2026-04-30 11:03 | 48.55065 | 10.42282 | 18584 ft | 350 kts | 278° |
| 2026-04-30 11:03 | 48.55230 | 10.38622 | 18203 ft | 353 kts | 278° |
| 2026-04-30 11:04 | 48.55558 | 10.31199 | 17466 ft | 357 kts | 277° |
| 2026-04-30 11:04 | 48.55720 | 10.27477 | 17091 ft | 359 kts | 277° |
| 2026-04-30 11:04 | 48.55884 | 10.23684 | 16714 ft | 361 kts | 276° |
| 2026-04-30 11:04 | 48.56047 | 10.19901 | 16351 ft | 363 kts | 276° |
| 2026-04-30 11:05 | 48.56208 | 10.16105 | 15982 ft | 365 kts | 276° |
| 2026-04-30 11:05 | 48.56368 | 10.12306 | 15621 ft | 366 kts | 276° |
| 2026-04-30 11:05 | 48.56529 | 10.08481 | 15252 ft | 367 kts | 276° |
| 2026-04-30 11:05 | 48.56688 | 10.04654 | 14888 ft | 368 kts | 276° |
| 2026-04-30 11:06 | 48.56847 | 10.00796 | 14513 ft | 368 kts | 276° |
| 2026-04-30 11:06 | 48.57004 | 9.96953 | 14150 ft | 369 kts | 276° |
| 2026-04-30 11:06 | 48.57161 | 9.93093 | 13777 ft | 369 kts | 276° |
| 2026-04-30 11:06 | 48.57314 | 9.89272 | 13421 ft | 370 kts | 275° |
| 2026-04-30 11:07 | 48.57469 | 9.85381 | 13067 ft | 369 kts | 275° |
| 2026-04-30 11:07 | 48.57619 | 9.81556 | 12702 ft | 362 kts | 275° |
| 2026-04-30 11:07 | 48.57766 | 9.77827 | 12309 ft | 353 kts | 275° |
| 2026-04-30 11:07 | 48.57906 | 9.74208 | 11932 ft | 346 kts | 275° |
| 2026-04-30 11:08 | 48.58045 | 9.70635 | 11559 ft | 339 kts | 275° |
| 2026-04-30 11:08 | 48.58180 | 9.67104 | 11172 ft | 332 kts | 275° |
| 2026-04-30 11:08 | 48.58310 | 9.63671 | 10798 ft | 326 kts | 275° |
| 2026-04-30 11:08 | 48.58437 | 9.60307 | 10428 ft | 321 kts | 275° |
| 2026-04-30 11:09 | 48.58563 | 9.56959 | 10045 ft | 315 kts | 275° |
| 2026-04-30 11:09 | 48.58683 | 9.53697 | 9661 ft | 311 kts | 274° |
| 2026-04-30 11:09 | 48.58801 | 9.50513 | 9293 ft | 306 kts | 274° |
| 2026-04-30 11:09 | 48.58918 | 9.47306 | 8908 ft | 302 kts | 274° |
| 2026-04-30 11:10 | 48.59032 | 9.44156 | 8575 ft | 296 kts | 274° |
| 2026-04-30 11:10 | 48.59141 | 9.41115 | 8310 ft | 288 kts | 274° |
| 2026-04-30 11:10 | 48.59248 | 9.38141 | 8016 ft | 283 kts | 274° |
| 2026-04-30 11:10 | 48.59351 | 9.35235 | 7762 ft | 276 kts | 274° |
| 2026-04-30 11:11 | 48.59452 | 9.32375 | 7469 ft | 271 kts | 273° |
| 2026-04-30 11:11 | 48.59551 | 9.29566 | 7189 ft | 266 kts | 273° |
| 2026-04-30 11:11 | 48.59647 | 9.26802 | 6893 ft | 262 kts | 273° |
| 2026-04-30 11:11 | 48.59740 | 9.24088 | 6587 ft | 259 kts | 273° |
| 2026-04-30 11:12 | 48.59833 | 9.21363 | 6235 ft | 259 kts | 273° |
| 2026-04-30 11:12 | 48.59926 | 9.18645 | 5916 ft | 258 kts | 273° |
| 2026-04-30 11:12 | 48.59942 | 9.15953 | 5560 ft | 257 kts | 257° |
| 2026-04-30 11:12 | 48.59457 | 9.13408 | 5281 ft | 253 kts | 253° |
| 2026-04-30 11:13 | 48.58976 | 9.10883 | 4945 ft | 253 kts | 252° |
| 2026-04-30 11:13 | 48.58869 | 9.08299 | 4729 ft | 242 kts | 290° |
| 2026-04-30 11:13 | 48.59758 | 9.06339 | 4587 ft | 218 kts | 335° |
| 2026-04-30 11:13 | 48.61073 | 9.05385 | 4523 ft | 201 kts | 343° |
| 2026-04-30 11:14 | 48.62339 | 9.04552 | 4507 ft | 195 kts | 343° |
| 2026-04-30 11:14 | 48.63591 | 9.04133 | 4441 ft | 178 kts | 16° |
| 2026-04-30 11:14 | 48.64645 | 9.04992 | 4372 ft | 176 kts | 44° |
| 2026-04-30 11:14 | 48.65622 | 9.06150 | 4262 ft | 175 kts | 44° |
| 2026-04-30 11:15 | 48.66249 | 9.07626 | 4122 ft | 168 kts | 78° |
| 2026-04-30 11:15 | 48.66504 | 9.09273 | 4000 ft | 157 kts | 75° |
| 2026-04-30 11:15 | 48.66799 | 9.10729 | 3680 ft | 141 kts | 74° |
| 2026-04-30 11:15 | 48.67066 | 9.12182 | 2754 ft | 150 kts | 79° |
| 2026-04-30 11:16 | 48.67316 | 9.13626 | 2263 ft | 134 kts | 71° |
| 2026-04-30 11:16 | 48.67585 | 9.14901 | 2021 ft | 124 kts | 71° |
| 2026-04-30 11:16 | 48.67845 | 9.16156 | 1821 ft | 130 kts | 79° |
| 2026-04-30 11:16 | 48.68092 | 9.17508 | 1722 ft | 129 kts | 73° |
| 2026-04-30 11:17 | 48.68330 | 9.18777 | 1506 ft | 124 kts | 74° |
| 2026-04-30 11:17 | 48.68583 | 9.20043 | 1330 ft | 128 kts | 73° |
| 2026-04-30 11:17 | 48.68808 | 9.21285 | 1249 ft | 116 kts | 70° |
| 2026-04-30 11:17 | 48.68995 | 9.22229 | 1227 ft | 71 kts | 75° |
| 2026-04-30 11:18 | 48.69132 | 9.22530 | 1220 ft | 20 kts | 346° |
| 2026-04-30 11:18 | 48.69260 | 9.22399 | 1225 ft | 3 kts | 221° |
| 2026-04-30 11:18 | 48.69235 | 9.22336 | 1226 ft | 20 kts | 248° |
| 2026-04-30 11:19 | 48.69229 | 9.22208 | 1230 ft | 15 kts | 290° |
| 2026-04-30 11:19 | 48.69212 | 9.22015 | 1234 ft | 20 kts | 250° |
| 2026-04-30 11:19 | 48.69168 | 9.21800 | 1241 ft | 21 kts | 253° |
| 2026-04-30 11:19 | 48.69136 | 9.21600 | 1245 ft | 17 kts | 260° |
| 2026-04-30 11:20 | 48.69104 | 9.21422 | 1246 ft | 19 kts | 254° |
| 2026-04-30 11:20 | 48.69150 | 9.21279 | 1248 ft | 15 kts | 316° |
| 2026-04-30 11:20 | 48.69139 | 9.21247 | 1249 ft | 2 kts | 169° |
| 2026-04-30 11:20 | 48.69137 | 9.21247 | 1249 ft | 0 kts | 163° |